Time;durP1;ratioP1;P1;durP2;ratioP2;P2;SDS_P1;SDS_P2;PMS_P1;PMS_P2;Temp;Humidity;BMP_temperature;BMP_pressure;BME280_temperature;BME280_humidity;BME280_pressure;Samples;Min_cycle;Max_cycle;Signal;HPM_P1;HPM_P2
2022/03/18 00:00:16;;;;;;;9.88;4.38;;;4.20;99.90;;;;;;6349626;22;20439;-95
2022/03/18 00:02:42;;;;;;;13.90;5.30;;;4.10;99.90;;;;;;6376235;22;20014;-95
2022/03/18 00:05:08;;;;;;;14.47;5.00;;;4.00;99.90;;;;;;6349836;22;20102;-96
2022/03/18 00:07:34;;;;;;;11.63;4.97;;;4.00;99.90;;;;;;6349053;22;20078;-95
2022/03/18 00:10:00;;;;;;;14.53;4.63;;;3.90;99.90;;;;;;6349829;22;20022;-95
2022/03/18 00:12:25;;;;;;;15.03;5.20;;;3.90;99.90;;;;;;6350013;22;20092;-91
2022/03/18 00:14:51;;;;;;;13.50;5.23;;;4.00;99.90;;;;;;6349586;22;20470;-94
2022/03/18 00:17:17;;;;;;;15.40;5.50;;;4.00;99.90;;;;;;6347665;22;20017;-93
2022/03/18 00:19:43;;;;;;;12.83;5.23;;;4.10;99.90;;;;;;6349883;22;20044;-93
2022/03/18 00:22:11;;;;;;;11.37;5.10;;;4.10;99.90;;;;;;6349722;22;20010;-94
2022/03/18 00:24:37;;;;;;;12.80;4.60;;;4.10;99.90;;;;;;6349279;22;20063;-93
2022/03/18 00:27:04;;;;;;;15.50;5.50;;;4.10;99.90;;;;;;6349624;22;20018;-96
2022/03/18 00:29:45;;;;;;;13.35;5.10;;;4.10;99.90;;;;;;6350145;22;20021;-96
2022/03/18 00:32:13;;;;;;;13.30;4.78;;;4.00;99.90;;;;;;6360131;22;20097;-93
2022/03/18 00:34:44;;;;;;;10.68;4.82;;;4.00;99.90;;;;;;6398488;22;20025;-97
2022/03/18 00:37:12;;;;;;;;;;;4.10;99.90;;;;;;6365309;22;20045;-96
2022/03/18 00:39:42;;;;;;;13.05;4.80;;;4.10;99.90;;;;;;6371550;22;19968;-96
2022/03/18 00:42:09;;;;;;;12.35;5.10;;;4.10;99.90;;;;;;6348990;22;20006;-92
2022/03/18 00:44:50;;;;;;;11.90;4.68;;;4.10;99.90;;;;;;6340709;22;20027;-92
2022/03/18 00:52:45;;;;;;;10.73;4.80;;;3.90;99.90;;;;;;6343962;22;20056;-88
2022/03/18 00:55:11;;;;;;;12.57;5.13;;;3.80;99.90;;;;;;6317905;22;20019;-92
2022/03/18 00:57:37;;;;;;;14.67;5.20;;;3.80;99.90;;;;;;6317832;22;20018;-92
2022/03/18 01:00:05;;;;;;;11.47;5.37;;;3.80;99.90;;;;;;6318145;22;20018;-92
2022/03/18 01:02:30;;;;;;;13.13;6.00;;;3.80;99.90;;;;;;6317601;22;20384;-92
2022/03/18 01:04:56;;;;;;;11.50;5.37;;;3.80;99.90;;;;;;6317970;22;20056;-88
2022/03/18 01:07:22;;;;;;;16.17;6.30;;;3.80;99.90;;;;;;6318190;22;20015;-88
2022/03/18 01:09:48;;;;;;;13.10;6.00;;;3.80;99.90;;;;;;6317778;22;20121;-91
2022/03/18 01:12:13;;;;;;;16.23;6.17;;;3.80;99.90;;;;;;6343721;22;20006;-94
2022/03/18 01:14:39;;;;;;;16.77;6.27;;;3.80;99.90;;;;;;6343528;22;20014;-96
2022/03/18 01:17:05;;;;;;;13.60;5.83;;;3.80;99.90;;;;;;6328137;22;20018;-93
2022/03/18 01:19:31;;;;;;;18.47;6.77;;;3.80;99.90;;;;;;6327842;22;20018;-95
2022/03/18 01:21:57;;;;;;;15.87;6.23;;;3.80;99.90;;;;;;6326151;22;20053;-96
2022/03/18 01:24:23;;;;;;;17.50;6.72;;;3.80;99.90;;;;;;6319109;22;20052;-96
2022/03/18 01:26:49;;;;;;;14.53;6.37;;;3.90;99.90;;;;;;6320051;22;20060;-96
2022/03/18 01:29:15;;;;;;;16.40;6.33;;;4.10;99.90;;;;;;6320680;22;20022;-95
2022/03/18 01:31:42;;;;;;;20.27;7.13;;;4.10;99.90;;;;;;6320397;22;20447;-93
2022/03/18 01:34:09;;;;;;;15.32;6.18;;;4.30;99.90;;;;;;6344168;22;20075;-96
2022/03/18 01:36:34;;;;;;;14.27;5.93;;;4.40;99.90;;;;;;6318409;22;20064;-95
2022/03/18 01:39:01;;;;;;;14.47;5.77;;;4.50;99.90;;;;;;6321786;22;20014;-95
2022/03/18 01:41:26;;;;;;;16.63;5.67;;;4.60;99.90;;;;;;6327292;22;20459;-96
2022/03/18 01:43:52;;;;;;;15.43;5.30;;;4.70;99.90;;;;;;6321178;22;20309;-90
2022/03/18 01:46:18;;;;;;;18.37;5.20;;;4.80;99.90;;;;;;6321695;22;20018;-96
2022/03/18 01:48:45;;;;;;;17.55;5.65;;;4.80;99.90;;;;;;6322651;22;20029;-96
2022/03/18 01:51:15;;;;;;;15.02;4.85;;;4.90;99.90;;;;;;6322231;22;20029;-95
2022/03/18 01:53:43;;;;;;;18.90;5.70;;;5.00;99.90;;;;;;6318369;22;20014;-96
2022/03/18 01:56:09;;;;;;;12.40;4.50;;;5.00;99.90;;;;;;6319134;22;20324;-96
2022/03/18 01:58:35;;;;;;;11.90;4.35;;;5.10;99.90;;;;;;6352377;22;20090;-94
2022/03/18 02:06:11;;;;;;;17.50;5.63;;;5.20;99.90;;;;;;6376619;22;20023;-88
2022/03/18 02:08:38;;;;;;;13.73;4.50;;;5.20;99.90;;;;;;6347439;22;20403;-96
2022/03/18 02:11:07;;;;;;;18.02;5.10;;;5.20;99.90;;;;;;6329524;22;20018;-96
2022/03/18 02:13:32;;;;;;;15.38;5.13;;;5.30;99.90;;;;;;6308324;22;20083;-96
2022/03/18 02:16:02;;;;;;;14.03;5.70;;;5.30;99.90;;;;;;6333771;22;20022;-94
2022/03/18 02:18:50;;;;;;;13.27;4.75;;;5.30;99.90;;;;;;6318606;22;20006;-96
2022/03/18 02:21:16;;;;;;;14.50;4.57;;;5.20;99.90;;;;;;6317628;22;20029;-92
2022/03/18 02:23:43;;;;;;;13.95;5.15;;;5.20;99.90;;;;;;6317737;22;20026;-90
2022/03/18 02:26:13;;;;;;;14.23;5.20;;;5.20;99.90;;;;;;6343731;22;20022;-96
2022/03/18 02:28:39;;;;;;;15.30;5.22;;;5.20;99.90;;;;;;6343854;22;20018;-90
2022/03/18 02:31:05;;;;;;;16.03;5.27;;;5.20;99.90;;;;;;6317802;22;20371;-93
2022/03/18 02:33:33;;;;;;;11.70;4.37;;;5.20;99.90;;;;;;6317286;22;20019;-95
2022/03/18 02:35:58;;;;;;;13.35;4.43;;;5.20;99.90;;;;;;6327089;22;20380;-96
2022/03/18 02:38:24;;;;;;;13.90;4.63;;;5.20;99.90;;;;;;6328009;22;20018;-92
2022/03/18 02:40:50;;;;;;;15.47;4.50;;;5.20;99.90;;;;;;6328053;22;20083;-96
2022/03/18 02:43:16;;;;;;;11.67;4.30;;;5.20;99.90;;;;;;6332860;22;20033;-90
2022/03/18 02:45:42;;;;;;;13.30;4.47;;;5.20;99.90;;;;;;6323087;22;20026;-96
2022/03/18 02:48:08;;;;;;;11.27;4.07;;;5.20;99.90;;;;;;6347136;22;20102;-95
2022/03/18 02:50:35;;;;;;;10.13;3.53;;;5.30;99.90;;;;;;6321113;22;20018;-94
2022/03/18 02:53:01;;;;;;;11.52;3.58;;;5.30;99.90;;;;;;6320099;22;20029;-92
2022/03/18 02:55:27;;;;;;;9.97;3.80;;;5.30;99.90;;;;;;6318026;22;20018;-92
2022/03/18 02:57:53;;;;;;;10.37;4.00;;;5.30;99.90;;;;;;6318908;22;20029;-90
2022/03/18 03:00:18;;;;;;;10.73;4.13;;;5.30;99.90;;;;;;6319297;22;20015;-90
2022/03/18 03:02:56;;;;;;;11.93;4.23;;;5.30;99.90;;;;;;6324523;22;20071;-91
2022/03/18 03:10:58;;;;;;;10.00;4.75;;;5.10;99.90;;;;;;6423943;22;20032;-89
2022/03/18 03:13:31;;;;;;;13.27;4.63;;;5.10;99.90;;;;;;6393703;22;20029;-90
2022/03/18 03:16:00;;;;;;;12.05;5.40;;;5.10;99.90;;;;;;6391450;22;20102;-91
2022/03/18 03:18:28;;;;;;;12.15;4.38;;;5.20;99.90;;;;;;6334352;22;20076;-90
2022/03/18 03:21:03;;;;;;;12.63;4.63;;;5.20;99.90;;;;;;6306788;22;20021;-93
2022/03/18 03:23:29;;;;;;;13.03;5.13;;;5.20;99.90;;;;;;6350565;22;20025;-94
2022/03/18 03:25:55;;;;;;;12.23;5.23;;;5.20;99.90;;;;;;6350245;22;20100;-93
2022/03/18 03:28:21;;;;;;;14.38;5.65;;;5.20;99.90;;;;;;6351121;22;20025;-91
2022/03/18 03:30:50;;;;;;;9.65;4.72;;;5.20;99.90;;;;;;6352399;22;20021;-93
2022/03/18 03:33:16;;;;;;;13.20;5.10;;;5.20;99.90;;;;;;6352017;22;20014;-94
2022/03/18 03:35:43;;;;;;;12.73;5.63;;;5.20;99.90;;;;;;6350978;22;20093;-96
2022/03/18 03:38:15;;;;;;;12.43;5.20;;;5.20;99.90;;;;;;6350816;22;20010;-95
2022/03/18 03:40:43;;;;;;;16.27;5.20;;;5.20;99.90;;;;;;6351409;22;20021;-93
2022/03/18 03:43:17;;;;;;;12.77;5.03;;;5.20;99.90;;;;;;6354202;22;20018;-90
2022/03/18 03:45:46;;;;;;;13.57;5.32;;;5.30;99.90;;;;;;6357656;22;20014;-93
2022/03/18 03:48:13;;;;;;;12.30;5.13;;;5.20;99.90;;;;;;6358725;22;20025;-95
2022/03/18 03:50:43;;;;;;;13.13;5.70;;;5.20;99.90;;;;;;6357860;22;20069;-93
2022/03/18 03:53:09;;;;;;;14.88;5.78;;;5.20;99.90;;;;;;6356814;22;20480;-92
2022/03/18 03:55:39;;;;;;;14.23;5.28;;;5.30;99.90;;;;;;6357182;22;20018;-91
2022/03/18 03:58:08;;;;;;;13.82;5.53;;;5.20;99.90;;;;;;6357302;22;20021;-95
2022/03/18 04:00:37;;;;;;;14.55;5.53;;;5.30;99.90;;;;;;6382381;22;20025;-92
2022/03/18 04:03:04;;;;;;;10.23;5.82;;;5.30;99.90;;;;;;6381610;22;20018;-95
2022/03/18 04:05:31;;;;;;;10.48;5.78;;;5.30;99.90;;;;;;6352074;22;20079;-89
2022/03/18 04:07:58;;;;;;;16.77;5.68;;;5.30;99.90;;;;;;6355892;22;20017;-89
2022/03/18 04:10:24;;;;;;;14.75;6.10;;;5.40;99.90;;;;;;6354767;22;20454;-91
2022/03/18 04:12:49;;;;;;;10.63;5.23;;;5.40;99.90;;;;;;6349636;22;20071;-95
2022/03/18 04:15:15;;;;;;;14.37;6.50;;;5.40;99.90;;;;;;6349832;22;20022;-91
2022/03/18 04:17:48;;;;;;;16.20;6.50;;;5.40;99.90;;;;;;6349849;22;20018;-91
2022/03/18 04:20:22;;;;;;;11.95;6.00;;;5.40;99.90;;;;;;6350573;22;20018;-90
2022/03/18 04:22:49;;;;;;;14.05;6.63;;;5.50;99.90;;;;;;6352606;22;20024;-95
2022/03/18 04:25:15;;;;;;;15.30;6.78;;;5.50;99.90;;;;;;6350545;22;20082;-96
2022/03/18 04:27:41;;;;;;;15.33;6.80;;;5.60;99.90;;;;;;6350225;22;20446;-94
2022/03/18 04:30:10;;;;;;;16.70;8.25;;;5.60;99.90;;;;;;6350061;22;20017;-95
2022/03/18 04:32:36;;;;;;;17.92;8.00;;;5.60;99.90;;;;;;6375838;22;20370;-94
2022/03/18 04:35:03;;;;;;;14.47;8.07;;;5.70;99.90;;;;;;6350146;22;20446;-95
2022/03/18 04:37:29;;;;;;;16.27;8.10;;;5.70;99.90;;;;;;6349751;22;20022;-95
2022/03/18 04:39:55;;;;;;;17.40;8.13;;;5.70;99.90;;;;;;6349680;22;20014;-95
2022/03/18 04:42:20;;;;;;;15.30;8.13;;;5.80;99.90;;;;;;6349913;22;20347;-95
2022/03/18 04:44:46;;;;;;;18.83;9.20;;;5.80;99.90;;;;;;6349497;22;20044;-93
2022/03/18 04:47:12;;;;;;;19.00;8.80;;;5.80;99.90;;;;;;6349874;22;20092;-95
2022/03/18 04:49:41;;;;;;;13.15;7.88;;;5.80;99.90;;;;;;6349684;22;20033;-93
2022/03/18 04:52:07;;;;;;;18.17;8.52;;;5.80;99.90;;;;;;6350006;22;20014;-94
2022/03/18 04:54:33;;;;;;;17.47;8.80;;;5.80;99.90;;;;;;6349781;22;20029;-95
2022/03/18 04:57:18;;;;;;;17.43;8.70;;;5.90;99.90;;;;;;6351820;22;20022;-95
2022/03/18 04:59:46;;;;;;;14.25;8.73;;;5.90;99.90;;;;;;6379529;22;20026;-95
2022/03/18 05:02:12;;;;;;;21.02;9.38;;;5.80;99.90;;;;;;6351768;22;20017;-94
2022/03/18 05:04:38;;;;;;;18.10;9.52;;;5.80;99.90;;;;;;6349224;22;20078;-93
2022/03/18 05:07:05;;;;;;;22.77;9.88;;;5.80;99.90;;;;;;6375712;22;20018;-94
2022/03/18 05:09:54;;;;;;;;;;;5.80;99.90;;;;;;6352425;22;20025;-94
2022/03/18 05:12:21;;;;;;;20.75;9.40;;;5.70;99.90;;;;;;6352643;22;19925;-94
2022/03/18 05:14:47;;;;;;;20.42;10.30;;;5.70;99.90;;;;;;6375672;22;20033;-90
2022/03/18 05:17:13;;;;;;;16.90;9.47;;;5.60;99.90;;;;;;6355875;22;20018;-95
2022/03/18 05:23:20;;;;;;;;;;;5.50;99.90;;;;;;6358271;22;20033;-93
2022/03/18 05:30:11;;;;;;;22.65;9.30;;;5.30;99.90;;;;;;6373526;22;20020;-96
2022/03/18 05:32:36;;;;;;;15.98;9.68;;;5.20;99.90;;;;;;6322094;22;20018;-88
2022/03/18 05:35:04;;;;;;;15.80;9.63;;;5.20;99.90;;;;;;6324603;22;20033;-96
2022/03/18 05:37:30;;;;;;;18.67;10.40;;;5.10;99.90;;;;;;6330889;22;20014;-92
2022/03/18 05:40:05;;;;;;;18.27;10.13;;;5.10;99.90;;;;;;6318024;22;20347;-92
2022/03/18 05:42:31;;;;;;;17.55;9.77;;;5.00;99.90;;;;;;6343832;22;20101;-89
2022/03/18 05:44:56;;;;;;;13.63;9.60;;;5.00;99.90;;;;;;6317172;22;20049;-92
2022/03/18 05:47:22;;;;;;;17.53;9.80;;;5.00;99.90;;;;;;6318031;22;20046;-92
2022/03/18 05:49:48;;;;;;;20.57;10.60;;;4.90;99.90;;;;;;6317678;22;20010;-92
2022/03/18 05:52:14;;;;;;;16.90;9.93;;;4.90;99.90;;;;;;6345457;22;20147;-93
2022/03/18 05:54:39;;;;;;;16.30;10.90;;;4.90;99.90;;;;;;6317879;22;20018;-91
2022/03/18 05:57:05;;;;;;;16.20;10.23;;;4.90;99.90;;;;;;6343282;22;20017;-94
2022/03/18 05:59:33;;;;;;;19.08;11.00;;;4.90;99.90;;;;;;6343638;22;20014;-93
2022/03/18 06:02:00;;;;;;;19.27;10.32;;;4.80;99.90;;;;;;6343574;22;20014;-93
2022/03/18 06:04:27;;;;;;;;;;;4.80;99.90;;;;;;6318169;22;20379;-91
2022/03/18 06:06:53;;;;;;;18.30;10.02;;;4.80;99.90;;;;;;6317643;22;19955;-89
2022/03/18 06:12:05;;;;;;;21.85;12.18;;;4.80;99.90;;;;;;6343524;22;20026;-90
2022/03/18 06:14:31;;;;;;;;;;;4.80;99.90;;;;;;6344177;22;20029;-90
2022/03/18 06:16:59;;;;;;;15.50;10.63;;;4.80;99.90;;;;;;6343747;22;20277;-92
2022/03/18 06:19:26;;;;;;;17.17;10.60;;;4.80;99.90;;;;;;6343622;22;20006;-95
2022/03/18 06:21:52;;;;;;;19.90;10.60;;;4.80;99.90;;;;;;6317738;22;20029;-94
2022/03/18 06:24:20;;;;;;;18.33;11.20;;;4.90;99.90;;;;;;6343724;22;20022;-96
2022/03/18 06:26:47;;;;;;;18.10;11.05;;;4.90;99.90;;;;;;6317635;22;20014;-95
2022/03/18 06:29:13;;;;;;;22.95;12.15;;;4.90;99.90;;;;;;6319418;22;20018;-93
2022/03/18 06:31:39;;;;;;;24.03;12.83;;;5.00;99.90;;;;;;6323615;22;20101;-95
2022/03/18 06:34:06;;;;;;;17.67;11.10;;;5.10;99.90;;;;;;6318605;22;20014;-94
2022/03/18 06:36:32;;;;;;;18.58;11.73;;;5.10;99.90;;;;;;6320932;22;20037;-95
2022/03/18 06:39:00;;;;;;;22.48;11.90;;;5.10;99.90;;;;;;6322612;22;20447;-93
2022/03/18 06:41:44;;;;;;;17.30;11.45;;;5.20;99.90;;;;;;6294098;22;20024;-94
2022/03/18 06:44:19;;;;;;;20.95;11.50;;;5.30;99.90;;;;;;6269544;22;20441;-93
2022/03/18 06:50:35;;;;;;;18.00;11.60;;;5.50;99.90;;;;;;6179408;22;20043;-93
2022/03/18 06:53:10;;;;;;;19.38;10.80;;;5.60;99.90;;;;;;6228135;22;20020;-95
2022/03/18 06:55:42;;;;;;;18.75;11.85;;;5.90;99.90;;;;;;6234932;22;20019;-93
2022/03/18 06:58:16;;;;;;;17.02;10.98;;;6.20;99.90;;;;;;6281770;22;20015;-93
2022/03/18 07:00:42;;;;;;;25.05;11.07;;;6.50;99.90;;;;;;6226356;22;20055;-92
2022/03/18 07:03:21;;;;;;;20.47;10.90;;;7.10;99.90;;;;;;6226987;22;20073;-92
2022/03/18 07:06:13;;;;;;;19.65;10.38;;;7.80;99.90;;;;;;6282307;22;20019;-94
2022/03/18 07:08:38;;;;;;;17.20;10.57;;;8.20;99.90;;;;;;6277118;22;20402;-90
2022/03/18 07:11:04;;;;;;;17.33;10.67;;;8.30;99.90;;;;;;6276623;22;20027;-89
2022/03/18 07:13:48;;;;;;;19.45;11.13;;;8.40;99.90;;;;;;6308605;22;20447;-89
2022/03/18 07:18:58;;;;;;;18.60;11.95;;;8.80;99.90;;;;;;6344612;22;20015;-91
2022/03/18 07:21:35;;;;;;;17.60;11.27;;;9.00;99.90;;;;;;6319382;22;20143;-93
2022/03/18 07:24:01;;;;;;;20.83;12.27;;;9.10;99.90;;;;;;6318171;22;20435;-88
2022/03/18 07:26:27;;;;;;;18.95;12.38;;;9.00;99.90;;;;;;6319018;22;20260;-90
2022/03/18 07:29:20;;;;;;;23.90;11.83;;;8.70;99.90;;;;;;6319506;22;20026;-90
2022/03/18 07:32:10;;;;;;;21.02;12.88;;;8.60;99.90;;;;;;6319317;22;20022;-88
2022/03/18 07:40:00;;;;;;;23.33;11.65;;;9.40;99.90;;;;;;6372129;22;20018;-88
2022/03/18 07:43:18;;;;;;;20.17;12.30;;;9.80;99.90;;;;;;6318408;22;20023;-89
2022/03/18 07:45:43;;;;;;;19.38;12.43;;;10.10;99.90;;;;;;6318274;22;20018;-92
2022/03/18 07:48:09;;;;;;;19.03;12.53;;;10.10;99.90;;;;;;6318965;22;20018;-91
2022/03/18 07:50:38;;;;;;;17.93;11.57;;;10.10;99.90;;;;;;6319190;22;20022;-92
2022/03/18 07:53:07;;;;;;;21.10;12.48;;;10.30;99.90;;;;;;6318670;22;20041;-92
2022/03/18 07:55:37;;;;;;;21.13;13.18;;;10.30;99.90;;;;;;6319645;22;20019;-95
2022/03/18 07:58:15;;;;;;;23.02;13.05;;;10.00;99.90;;;;;;6318813;22;20021;-91
2022/03/18 08:00:41;;;;;;;26.13;14.18;;;9.50;99.90;;;;;;6344633;22;20045;-95
2022/03/18 08:03:06;;;;;;;21.60;13.87;;;9.10;99.90;;;;;;6318589;22;20447;-90
2022/03/18 08:05:32;;;;;;;23.53;13.80;;;8.80;99.90;;;;;;6343753;22;20014;-93
2022/03/18 08:07:58;;;;;;;22.60;14.83;;;8.60;99.90;;;;;;6344126;22;20067;-90
2022/03/18 08:10:25;;;;;;;30.03;14.80;;;8.40;99.90;;;;;;6343787;22;20018;-93
2022/03/18 08:12:51;;;;;;;22.23;14.30;;;8.30;99.90;;;;;;6343931;22;20359;-87
2022/03/18 08:15:19;;;;;;;30.50;14.13;;;8.20;99.90;;;;;;6317416;22;20052;-85
2022/03/18 08:17:45;;;;;;;26.95;14.32;;;8.30;99.90;;;;;;6346140;22;20064;-88
2022/03/18 08:20:14;;;;;;;26.00;15.00;;;8.20;99.90;;;;;;6342766;22;20026;-93
2022/03/18 08:22:40;;;;;;;25.83;14.27;;;8.20;99.90;;;;;;6316874;22;20015;-89
2022/03/18 08:25:07;;;;;;;27.17;15.98;;;8.30;99.90;;;;;;6316600;22;20018;-88
2022/03/18 08:27:33;;;;;;;;;;;8.30;99.90;;;;;;6344392;22;20022;-88
2022/03/18 08:30:00;;;;;;;25.33;15.15;;;8.30;99.90;;;;;;6343892;22;19944;-85
2022/03/18 08:32:26;;;;;;;;;;;8.40;99.90;;;;;;6317919;22;20010;-90
2022/03/18 08:34:53;;;;;;;29.52;14.35;;;8.40;99.90;;;;;;6317434;22;19914;-90
2022/03/18 08:40:04;;;;;;;27.25;14.68;;;8.50;99.90;;;;;;6343313;22;20023;-85
2022/03/18 08:42:29;;;;;;;25.33;13.57;;;8.60;99.90;;;;;;6317524;22;20021;-87
2022/03/18 08:44:55;;;;;;;25.73;12.93;;;8.70;99.90;;;;;;6317707;22;20014;-92
2022/03/18 08:47:23;;;;;;;27.27;13.40;;;8.70;99.90;;;;;;6343777;22;20040;-94
2022/03/18 08:49:49;;;;;;;27.27;13.18;;;8.70;99.90;;;;;;6369959;22;20075;-87
2022/03/18 08:52:15;;;;;;;26.00;13.40;;;8.90;99.90;;;;;;6344872;22;20011;-87
2022/03/18 08:54:40;;;;;;;25.87;13.53;;;9.00;99.90;;;;;;6351625;22;20026;-86
2022/03/18 08:57:06;;;;;;;29.60;14.17;;;9.00;99.90;;;;;;6328530;22;20025;-88
2022/03/18 08:59:32;;;;;;;33.63;14.30;;;9.10;99.90;;;;;;6331841;22;20177;-86
2022/03/18 09:01:58;;;;;;;29.63;12.83;;;9.10;99.90;;;;;;6319938;22;20025;-94
2022/03/18 09:04:24;;;;;;;28.23;13.60;;;9.20;99.90;;;;;;6317858;22;20046;-92
2022/03/18 09:06:52;;;;;;;33.50;12.43;;;9.30;99.90;;;;;;6343999;22;20023;-93
2022/03/18 09:09:18;;;;;;;24.27;12.90;;;9.30;99.90;;;;;;6317747;22;20087;-90
2022/03/18 09:11:44;;;;;;;26.73;11.90;;;9.40;99.90;;;;;;6317020;22;20026;-91
2022/03/18 09:14:10;;;;;;;24.83;11.67;;;9.50;99.90;;;;;;6317442;22;20348;-93
2022/03/18 09:16:38;;;;;;;29.25;12.88;;;9.60;99.90;;;;;;6343538;22;20443;-92
2022/03/18 09:19:04;;;;;;;28.05;11.90;;;9.60;99.90;;;;;;6318121;22;20471;-86
2022/03/18 09:21:30;;;;;;;25.95;11.15;;;9.60;99.90;;;;;;6343928;22;20019;-90
2022/03/18 09:23:56;;;;;;;29.20;11.10;;;9.80;99.90;;;;;;6343946;22;20037;-92
2022/03/18 09:26:22;;;;;;;26.20;11.23;;;9.80;99.90;;;;;;6315712;22;20444;-90
2022/03/18 09:28:48;;;;;;;22.30;10.27;;;9.80;99.90;;;;;;6341529;22;20018;-91
2022/03/18 09:31:14;;;;;;;26.87;11.20;;;9.90;99.90;;;;;;6315024;22;20046;-91
2022/03/18 09:33:42;;;;;;;24.70;12.05;;;10.00;99.90;;;;;;6315534;22;20015;-92
2022/03/18 09:36:11;;;;;;;19.55;9.57;;;10.10;99.90;;;;;;6342511;22;20021;-90
2022/03/18 09:38:37;;;;;;;23.73;10.48;;;10.20;99.90;;;;;;6343701;22;20459;-93
2022/03/18 09:41:06;;;;;;;26.77;10.60;;;10.20;99.90;;;;;;6317888;22;20523;-95
2022/03/18 09:43:36;;;;;;;30.73;10.48;;;10.30;99.90;;;;;;6317511;22;20019;-89
2022/03/18 09:46:04;;;;;;;22.80;9.80;;;10.30;99.90;;;;;;6317104;22;20376;-89
2022/03/18 09:48:33;;;;;;;24.08;9.65;;;10.40;99.90;;;;;;6343246;22;20022;-89
2022/03/18 09:50:59;;;;;;;25.08;9.32;;;10.40;99.90;;;;;;6317298;22;20087;-90
2022/03/18 09:53:25;;;;;;;22.35;9.20;;;10.60;99.90;;;;;;6343675;22;20017;-91
2022/03/18 09:55:52;;;;;;;25.02;10.05;;;10.60;99.90;;;;;;6343192;22;20029;-89
2022/03/18 09:58:21;;;;;;;24.55;10.00;;;10.70;99.90;;;;;;6317109;22;20018;-92
2022/03/18 10:00:57;;;;;;;20.20;9.82;;;10.80;99.90;;;;;;6343357;22;20021;-91
2022/03/18 10:03:35;;;;;;;25.02;10.30;;;10.80;99.90;;;;;;6343304;22;20021;-89
2022/03/18 10:06:03;;;;;;;22.02;9.20;;;10.90;99.90;;;;;;6343215;22;20041;-93
2022/03/18 10:08:47;;;;;;;25.83;9.82;;;11.00;99.90;;;;;;6343371;22;20014;-92
2022/03/18 10:11:24;;;;;;;24.05;10.50;;;11.10;99.90;;;;;;6342807;22;20018;-89
2022/03/18 10:14:00;;;;;;;25.30;8.90;;;11.20;99.90;;;;;;6342804;22;20066;-86
2022/03/18 10:16:32;;;;;;;21.25;9.23;;;11.30;99.90;;;;;;6343153;22;20022;-85
2022/03/18 10:18:58;;;;;;;24.30;9.85;;;11.40;99.90;;;;;;6317014;22;20047;-87
2022/03/18 10:21:24;;;;;;;18.98;8.80;;;11.40;99.90;;;;;;6343194;22;20140;-94
2022/03/18 10:23:50;;;;;;;21.07;8.50;;;11.50;99.90;;;;;;6317194;22;20030;-91
2022/03/18 10:26:15;;;;;;;22.17;9.10;;;11.60;99.90;;;;;;6343198;22;20473;-92
2022/03/18 10:28:43;;;;;;;22.20;8.43;;;11.70;99.90;;;;;;6343165;22;20459;-90
2022/03/18 10:31:15;;;;;;;26.38;8.75;;;11.80;99.90;;;;;;6343052;22;20021;-89
2022/03/18 10:37:04;;;;;;;19.88;8.15;;;11.80;99.90;;;;;;6343551;22;20104;-94
2022/03/18 10:39:27;;;;;;;23.45;8.32;;;12.00;99.90;;;;;;6342986;22;20030;-93
2022/03/18 10:41:54;;;;;;;18.90;7.82;;;12.00;99.90;;;;;;6317258;22;20022;-92
2022/03/18 10:44:20;;;;;;;21.40;7.90;;;12.10;99.90;;;;;;6343085;22;20011;-90
2022/03/18 10:46:48;;;;;;;21.47;8.60;;;12.10;99.90;;;;;;6343399;22;20046;-92
2022/03/18 10:49:14;;;;;;;19.50;8.65;;;12.20;99.90;;;;;;6343487;22;20054;-93
2022/03/18 10:51:40;;;;;;;19.63;8.88;;;12.30;99.90;;;;;;6317046;22;20023;-88
2022/03/18 10:54:06;;;;;;;25.65;8.57;;;12.40;99.90;;;;;;6342916;22;20018;-94
2022/03/18 10:56:54;;;;;;;20.92;8.40;;;12.40;99.90;;;;;;6316598;22;20072;-94
2022/03/18 10:59:22;;;;;;;22.50;8.50;;;12.50;99.90;;;;;;6342915;22;20044;-93
2022/03/18 11:01:50;;;;;;;18.35;7.20;;;12.50;99.90;;;;;;6370615;22;20014;-91
2022/03/18 11:04:16;;;;;;;25.30;7.72;;;12.60;99.90;;;;;;6316457;22;20022;-92
2022/03/18 11:07:29;;;;;;;19.55;7.55;;;12.60;99.90;;;;;;6317165;22;20014;-89
2022/03/18 11:11:06;;;;;;;17.50;7.20;;;12.70;99.90;;;;;;6342085;22;20026;-94
2022/03/18 11:12:23;;;;;;;21.40;6.85;;;12.80;99.90;;;;;;6342960;22;20014;-92
2022/03/18 11:14:53;;;;;;;23.48;7.55;;;12.80;99.90;;;;;;6342634;22;20019;-89
2022/03/18 11:17:20;;;;;;;13.70;6.50;;;12.90;99.90;;;;;;6343253;22;20010;-91
2022/03/18 11:19:46;;;;;;;23.15;7.68;;;13.00;99.90;;;;;;6317662;22;20080;-90
2022/03/18 11:22:15;;;;;;;20.15;7.93;;;13.00;99.90;;;;;;6344828;22;20143;-91
2022/03/18 11:24:41;;;;;;;19.88;7.60;;;13.10;99.90;;;;;;6345089;22;20029;-91
2022/03/18 11:27:07;;;;;;;23.55;8.02;;;13.10;99.90;;;;;;6318346;22;20506;-89
2022/03/18 11:29:34;;;;;;;25.40;7.32;;;13.20;99.90;;;;;;6318776;22;20022;-90
2022/03/18 11:32:12;;;;;;;22.73;7.22;;;13.20;99.90;;;;;;6318356;22;20094;-91
2022/03/18 11:34:59;;;;;;;19.60;7.13;;;13.20;99.90;;;;;;6318748;22;20029;-91
2022/03/18 11:37:26;;;;;;;24.02;7.55;;;13.30;99.90;;;;;;6318276;22;20019;-93
2022/03/18 11:39:52;;;;;;;24.23;7.32;;;13.30;99.90;;;;;;6344449;22;20386;-88
2022/03/18 11:42:20;;;;;;;21.23;6.93;;;13.30;99.90;;;;;;6318246;22;20026;-88
2022/03/18 11:44:56;;;;;;;20.00;6.38;;;13.40;99.90;;;;;;6344129;22;20021;-86
2022/03/18 11:47:31;;;;;;;19.38;5.70;;;13.30;99.90;;;;;;6344577;22;20022;-89
2022/03/18 11:50:01;;;;;;;14.00;5.93;;;13.40;99.90;;;;;;6343897;22;20399;-89
2022/03/18 11:52:27;;;;;;;21.88;7.00;;;13.40;99.90;;;;;;6347173;22;20101;-88
2022/03/18 11:54:58;;;;;;;24.23;6.43;;;13.40;99.90;;;;;;6321807;22;20061;-92
2022/03/18 11:57:31;;;;;;;20.35;7.00;;;13.50;99.90;;;;;;6344707;22;20022;-92
2022/03/18 12:00:00;;;;;;;16.63;6.00;;;13.50;99.90;;;;;;6346111;22;20054;-92
2022/03/18 12:02:37;;;;;;;17.80;5.38;;;13.50;99.90;;;;;;6355245;22;20026;-94
2022/03/18 12:05:05;;;;;;;21.58;7.03;;;13.50;99.90;;;;;;6375431;22;20022;-92
2022/03/18 12:07:54;;;;;;;23.10;6.53;;;13.50;99.90;;;;;;6350401;22;20098;-94
2022/03/18 12:10:38;;;;;;;22.60;6.35;;;13.60;99.90;;;;;;6372817;22;20355;-91
2022/03/18 12:13:05;;;;;;;17.83;5.53;;;13.60;99.90;;;;;;6371635;22;20458;-88
2022/03/18 12:15:36;;;;;;;21.15;5.75;;;13.60;99.90;;;;;;6343625;22;20023;-85
2022/03/18 12:18:10;;;;;;;17.40;5.43;;;13.50;99.90;;;;;;6317599;22;20521;-86
2022/03/18 12:20:38;;;;;;;18.88;5.25;;;13.50;99.90;;;;;;6317650;22;20439;-87
2022/03/18 12:23:08;;;;;;;19.70;5.20;;;13.60;99.90;;;;;;6343745;22;20104;-86
2022/03/18 12:25:46;;;;;;;20.35;5.90;;;13.60;99.90;;;;;;6317498;22;20445;-87
2022/03/18 12:28:12;;;;;;;20.60;5.65;;;13.70;99.90;;;;;;6317567;22;20018;-85
2022/03/18 12:30:37;;;;;;;22.73;5.60;;;13.80;99.90;;;;;;6343288;22;20093;-86
2022/03/18 12:33:08;;;;;;;18.30;5.30;;;13.70;99.90;;;;;;6317276;22;20042;-87
2022/03/18 12:35:40;;;;;;;20.10;4.82;;;13.60;99.90;;;;;;6317945;22;20015;-91
2022/03/18 12:38:13;;;;;;;18.10;5.00;;;13.60;99.90;;;;;;6318153;22;20431;-92
2022/03/18 12:40:44;;;;;;;22.05;5.28;;;13.60;99.90;;;;;;6318203;22;20528;-92
2022/03/18 12:48:27;;;;;;;22.40;6.03;;;13.60;99.90;;;;;;6353368;22;20018;-90
2022/03/18 12:50:54;;;;;;;;;;;13.60;99.90;;;;;;6318411;22;20021;-91
2022/03/18 12:56:27;;;;;;;17.85;4.80;;;13.50;99.90;;;;;;6343493;22;20148;-91
2022/03/18 12:58:53;;;;;;;18.27;4.70;;;13.60;99.90;;;;;;6317253;22;20464;-91
2022/03/18 13:01:26;;;;;;;18.83;4.20;;;13.60;99.90;;;;;;6317590;22;20018;-91
2022/03/18 13:03:55;;;;;;;24.38;4.68;;;13.60;99.90;;;;;;6318028;22;20014;-91
2022/03/18 13:19:38;;;;;;;20.20;5.25;;;13.50;99.90;;;;;;6401810;22;20017;-88
2022/03/18 13:22:05;;;;;;;19.85;6.03;;;13.40;99.90;;;;;;6349295;22;20017;-92
2022/03/18 13:24:30;;;;;;;17.65;5.45;;;13.40;99.90;;;;;;6348877;22;20017;-93
2022/03/18 13:27:00;;;;;;;21.10;6.20;;;13.40;99.90;;;;;;6375384;22;20384;-89
2022/03/18 13:32:50;;;;;;;20.00;5.50;;;13.40;99.90;;;;;;6375164;22;20021;-92
2022/03/18 13:35:08;;;;;;;21.85;6.18;;;13.40;99.90;;;;;;6374980;22;20028;-92
2022/03/18 13:37:34;;;;;;;20.55;6.13;;;13.40;99.90;;;;;;6375448;22;20352;-92
2022/03/18 13:40:08;;;;;;;23.98;5.65;;;13.40;99.90;;;;;;6374569;22;20018;-92
2022/03/18 13:42:34;;;;;;;19.08;5.93;;;13.30;99.90;;;;;;6348408;22;20018;-94
2022/03/18 13:45:00;;;;;;;22.17;5.73;;;13.30;99.90;;;;;;6375329;22;20450;-92
2022/03/18 13:47:27;;;;;;;19.43;5.87;;;13.30;99.90;;;;;;6349233;22;20048;-92
2022/03/18 13:50:01;;;;;;;22.42;5.47;;;13.20;99.90;;;;;;6375038;22;20060;-92
2022/03/18 13:52:35;;;;;;;19.27;5.47;;;13.20;99.90;;;;;;6349371;22;20006;-93
2022/03/18 13:55:02;;;;;;;21.27;5.43;;;13.20;99.90;;;;;;6348539;22;20620;-93
2022/03/18 13:57:46;;;;;;;20.75;5.72;;;13.20;99.90;;;;;;6348515;22;20018;-92
2022/03/18 14:00:23;;;;;;;21.90;6.30;;;13.20;99.90;;;;;;6375304;22;20057;-91